Station: Adelaide (West Terrace / Ngayirdapira)  

  Atmospheric Gas Attenuation - ITU Rec 676-11   ----------------- dB/100km -----------------
Date Time Temp RH % AH g/m3 Dew Point Wind Direction Speed kph Gust kph Barometer mB Rainfall Since 9am 24GHz 47GHz 76GHz 122GHz 134GHz 241GHz
03/09 14:40 15.8 70 9.42 10.3 15 24 1019.3 0.2 21.2 26.9 42.3 111.2 107.1 369.2
03/09 14:30 16.2 70 9.65 10.7 13 20 1019.2 0.2 21.7 27.1 43.0 113.1 109.6 378.0
03/09 14:20 16.4 68 9.49 10.5 13 26 1019 0.2 21.3 26.8 42.3 111.0 107.2 369.6
03/09 14:10 16.5 69 9.69 10.8 13 24 1018.9 0.2 21.8 27.1 43.0 113.0 109.7 378.3
03/09 14:00 17.3 70 10.31 11.8 11 22 1018.9 0.2 23.0 27.8 45.1 118.6 116.8 403.3
03/09 13:50 16.4 74 10.33 11.8 11 20 1018.8 0.2 23.1 28.2 45.7 120.2 118.4 408.9
03/09 13:40 16.7 76 10.8 12.5 11 19 1018.8 0.2 24.1 28.8 47.5 124.9 124.4 429.7
03/09 13:30 16 75 10.22 11.6 13 20 1018.9 0.2 22.9 28.1 45.5 119.6 117.6 405.8
03/09 13:20 16.2 72 9.93 11.2 13 19 1018.9 0.2 22.3 27.6 44.2 116.1 113.3 391.0
03/09 13:10 15.9 74 10.02 11.3 15 22 1018.9 0.2 22.5 27.8 44.7 117.5 115.0 396.8
03/09 13:00 16.3 73 10.13 11.5 13 22 1018.9 0.2 22.7 27.9 44.9 118.1 115.9 399.9
03/09 12:50 16.4 76 10.61 12.2 15 24 1018.9 0.2 23.7 28.6 46.9 123.3 122.3 422.3
03/09 12:40 16.6 74 10.45 12 11 20 1018.9 0.2 23.4 28.3 46.1 121.2 119.8 413.6
03/09 12:30 16.5 76 10.67 12.3 13 19 1018.9 0.2 23.9 28.7 47.1 123.8 122.9 424.6
03/09 12:20 16.2 75 10.34 11.8 15 22 1018.9 0.2 23.2 28.2 45.9 120.6 118.9 410.4
03/09 12:10 16 78 10.63 12.2 17 24 1019 0.2 23.8 28.8 47.2 124.1 123.2 425.4
03/09 12:00 16.1 81 11.1 12.8 13 20 1019.1 0.2 24.8 29.6 49.1 129.3 129.6 447.8
03/09 11:50 16 84 11.44 13.3 13 20 1019.1 0.2 25.5 30.2 50.7 133.4 134.5 465.1
03/09 11:40 15.7 81 10.84 12.5 13 19 1019.1 0.2 24.3 29.3 48.3 127.0 126.6 437.3
03/09 11:30 15.6 83 11.04 12.7 13 20 1019 0.2 24.7 29.6 49.2 129.4 129.6 447.7
03/09 11:20 15.6 86 11.44 13.3 13 20 1019 0.2 25.6 30.3 50.9 134.1 135.2 467.5
03/09 11:10 15.6 90 11.97 14 11 22 1018.9 0.2 26.7 31.3 53.2 140.2 142.9 494.1
03/09 11:00 15.1 91 11.74 13.6 13 28 1019 0.2 26.2 31.0 52.6 138.4 140.5 485.6
03/09 10:50 14.9 93 11.85 13.8 13 22 1018.9 0.2 26.5 31.3 53.2 140.1 142.4 492.5
03/09 10:40 14.4 94 11.62 13.4 13 22 1019 0.2 26.0 31.1 52.5 138.3 140.0 484.0
03/09 10:30 14.9 87 11.09 12.8 20 30 1018.7 0 24.9 29.9 49.8 131.2 131.4 454.1
03/09 10:20 15.1 84 10.84 12.4 19 28 1018.7 0 24.3 29.4 48.6 128.0 127.6 440.6
03/09 10:10 15.3 84 10.97 12.6 17 28 1018.6 0 24.6 29.6 49.1 129.1 129.1 445.8
03/09 10:00 15.1 85 10.97 12.6 19 30 1018.6 0 24.6 29.7 49.2 129.4 129.4 447.0
03/09 09:50 14.9 84 10.71 12.2 20 28 1018.7 0 24.0 29.3 48.2 126.8 126.1 435.3
03/09 09:40 15 84 10.77 12.3 19 28 1018.6 0 24.2 29.4 48.4 127.3 126.7 437.7
03/09 09:30 15 85 10.9 12.5 19 28 1018.6 0 24.4 29.6 48.9 128.8 128.6 444.1
03/09 09:20 14.8 85 10.77 12.3 20 32 1018.5 0 24.2 29.4 48.5 127.6 127.1 438.8
03/09 09:10 15 85 10.9 12.5 19 32 1018.4 0 24.4 29.6 48.9 128.8 128.6 444.0
03/09 09:00 15.1 84 10.84 12.4 19 32 1018.4 0 24.3 29.4 48.6 127.9 127.5 440.5
03/09 08:50 14.6 85 10.64 12.1 20 32 1018.3 0.2 23.9 29.3 48.1 126.4 125.5 433.4
03/09 08:40 14.7 87 10.95 12.6 19 26 1018.2 0.2 24.6 29.7 49.3 129.8 129.7 448.2
03/09 08:30 14.3 87 10.69 12.2 15 24 1018.1 0.2 24.0 29.4 48.5 127.5 126.7 437.5
03/09 08:20 14 87 10.49 11.9 17 32 1018 0.2 23.6 29.2 47.8 125.7 124.4 429.3
03/09 08:10 13.9 88 10.55 11.9 15 32 1017.9 0.2 23.8 29.3 48.1 126.5 125.4 432.8
03/09 08:00 13.8 88 10.49 11.8 17 24 1017.7 0.2 23.6 29.2 47.9 125.9 124.7 430.3
03/09 07:50 13.7 90 10.66 12.1 13 20 1017.5 0.2 24.0 29.6 48.7 128.0 127.2 439.3
03/09 07:40 13.4 90 10.46 11.8 13 20 1017.4 0.2 23.6 29.3 48.0 126.2 124.9 431.0
03/09 07:30 13.3 90 10.4 11.7 13 19 1017.2 0.2 23.5 29.2 47.8 125.7 124.2 428.5
03/09 07:20 13.4 89 10.35 11.6 13 20 1017.2 0.2 23.4 29.1 47.5 124.9 123.3 425.4
03/09 07:10 13.4 89 10.35 11.6 13 20 1017.1 0.2 23.4 29.1 47.5 124.9 123.3 425.4
03/09 07:00 13.3 88 10.17 11.4 13 22 1017 0.2 23.0 28.8 46.8 123.0 120.9 417.0
03/09 06:50 13.2 88 10.1 11.3 13 22 1016.9 0.2 22.8 28.7 46.5 122.3 120.0 414.1
03/09 06:40 13.1 89 10.16 11.3 13 20 1016.8 0.2 23.0 28.9 46.8 123.2 121.0 417.5
03/09 06:30 13 88 9.98 11.1 13 24 1016.7 0.2 22.6 28.6 46.1 121.3 118.7 409.2
03/09 06:20 12.9 89 10.03 11.1 13 20 1016.6 0.2 22.7 28.7 46.4 122.0 119.5 412.1
03/09 06:10 12.9 88 9.92 11 13 20 1016.4 0.2 22.5 28.5 45.9 120.7 117.9 406.7
03/09 06:00 12.9 88 9.92 11 13 19 1016.4 0.2 22.5 28.5 45.9 120.7 117.9 406.7
03/09 05:50 13 87 9.87 10.9 13 22 1016.3 0.2 22.3 28.4 45.6 120.0 117.1 403.7
03/09 05:40 13.1 87 9.93 11 15 24 1016.3 0.2 22.5 28.4 45.8 120.5 117.8 406.1
03/09 05:30 13.1 87 9.93 11 13 20 1016.1 0.2 22.5 28.4 45.8 120.5 117.7 406.0
03/09 05:20 12.9 87 9.81 10.8 13 19 1016 0.2 22.2 28.3 45.4 119.4 116.4 401.1
03/09 05:10 12.9 86 9.69 10.6 15 24 1016 0.2 22.0 28.1 44.9 118.0 114.7 395.3
03/09 05:00 12.9 85 9.58 10.4 15 28 1015.9 0.2 21.7 27.9 44.4 116.8 113.1 389.9
03/09 04:50 12.9 85 9.58 10.4 15 22 1015.7 0.2 21.7 27.9 44.4 116.8 113.1 389.8
03/09 04:40 12.7 86 9.57 10.4 13 24 1015.7 0.2 21.7 27.9 44.5 116.9 113.3 390.4
03/09 04:30 12.8 84 9.41 10.2 15 22 1015.6 0.2 21.4 27.6 43.8 115.0 110.9 382.1
03/09 04:20 13 83 9.41 10.2 13 22 1015.4 0.2 21.4 27.6 43.6 114.7 110.6 381.0
03/09 04:10 13 83 9.41 10.2 15 22 1015.5 0.2 21.4 27.6 43.6 114.7 110.6 381.1
03/09 04:00 13 82 9.3 10 15 24 1015.5 0.2 21.1 27.4 43.2 113.5 109.1 375.8
03/09 03:50 13.2 81 9.3 10 17 28 1015.4 0.2 21.1 27.3 43.1 113.2 108.8 374.8
03/09 03:40 13.3 80 9.24 9.9 19 32 1015.5 0.2 21.0 27.2 42.8 112.4 107.8 371.5
03/09 03:30 13.3 81 9.36 10.1 17 26 1015.5 0.2 21.2 27.4 43.3 113.7 109.5 377.2
03/09 03:20 13.2 80 9.19 9.8 17 26 1015.5 0.2 20.9 27.1 42.6 111.9 107.3 369.6
03/09 03:10 13.3 80 9.24 9.9 15 24 1015.5 0.2 21.0 27.2 42.8 112.4 107.8 371.5
03/09 03:00 13.2 79 9.07 9.6 13 24 1015.6 0.2 20.6 26.9 42.1 110.6 105.7 363.9
03/09 02:50 13.1 78 8.9 9.4 15 22 1015.6 0.2 20.3 26.7 41.5 108.9 103.5 356.3
03/09 02:40 13.1 77 8.79 9.2 15 24 1015.6 0.2 20.0 26.5 41.0 107.7 102.0 351.1
03/09 02:30 13.2 75 8.61 8.9 15 24 1015.7 0.2 19.6 26.2 40.3 105.6 99.5 342.2
03/09 02:20 13.2 75 8.61 8.9 15 20 1015.8 0.2 19.6 26.2 40.3 105.6 99.5 342.3
03/09 02:10 13.1 75 8.56 8.8 13 26 1015.8 0.2 19.5 26.1 40.1 105.2 99.0 340.4
03/09 02:00 13 76 8.62 8.9 13 19 1015.9 0.2 19.7 26.3 40.4 106.0 99.9 343.6
03/09 01:50 12.9 76 8.57 8.8 13 20 1016 0.2 19.6 26.2 40.3 105.6 99.4 341.8
03/09 01:40 12.8 75 8.4 8.5 15 26 1016.1 0.2 19.2 26.0 39.6 103.9 97.2 334.3
03/09 01:30 12.7 76 8.46 8.6 17 28 1016.2 0.2 19.3 26.1 39.9 104.7 98.2 337.5
03/09 01:20 12.5 79 8.69 9 11 17 1016.3 0.2 19.8 26.5 41.0 107.5 101.5 349.3
03/09 01:10 12.2 81 8.74 9 11 20 1016.2 0.2 20.0 26.7 41.3 108.5 102.6 353.0
03/09 01:00 12.1 81 8.69 8.9 15 22 1016.1 0.2 19.9 26.7 41.2 108.0 102.0 351.0
03/09 00:50 12.3 79 8.58 8.8 17 28 1016.2 0.2 19.6 26.4 40.6 106.6 100.3 344.9
03/09 00:40 12.6 77 8.52 8.7 22 39 1016.3 0.2 19.5 26.2 40.2 105.5 99.1 340.8
03/09 00:30 13.1 70 7.99 7.8 19 33 1016.3 0.2 18.3 25.2 37.8 99.2 91.5 314.2
03/09 00:20 13.2 72 8.27 8.3 15 24 1016.3 0.2 18.9 25.6 38.9 102.0 95.0 326.6
03/09 00:10 13.1 73 8.33 8.4 13 17 1016.1 0.2 19.0 25.8 39.2 102.8 95.9 329.8
03/09 00:00 13 73 8.28 8.3 13 22 1016.2 0.2 18.9 25.7 39.0 102.4 95.4 327.9
02/09 23:50 13 75 8.51 8.7 13 20 1016.4 0.2 19.4 26.1 40.0 104.9 98.5 338.6
02/09 23:40 12.9 76 8.57 8.8 11 17 1016.4 0.2 19.6 26.2 40.3 105.7 99.4 341.9
02/09 23:30 13 75 8.51 8.7 15 22 1016.6 0.2 19.4 26.1 40.0 104.9 98.5 338.7
02/09 23:20 12.9 75 8.45 8.6 17 26 1016.6 0.2 19.3 26.0 39.8 104.4 97.8 336.3
02/09 23:10 13 73 8.28 8.3 15 20 1016.6 0.2 18.9 25.7 39.1 102.4 95.4 328.0
02/09 23:00 13 74 8.39 8.5 13 20 1016.7 0.2 19.2 25.9 39.5 103.6 96.9 333.1
02/09 22:50 12.9 73 8.23 8.2 13 24 1016.6 0.2 18.8 25.7 38.9 102.0 94.9 326.1
02/09 22:40 12.8 74 8.29 8.3 13 20 1016.7 0.2 19.0 25.8 39.2 102.8 95.8 329.3
02/09 22:30 12.9 74 8.34 8.4 17 26 1016.6 0.2 19.1 25.9 39.3 103.2 96.4 331.2
02/09 22:20 12.8 74 8.29 8.3 17 28 1016.7 0.2 19.0 25.8 39.2 102.8 95.8 329.3
02/09 22:10 12.5 74 8.14 8 13 19 1016.7 0.2 18.7 25.7 38.7 101.6 94.2 323.6

Last Refresh: 03-Sep-2026 14:51:07

Bureau of Meteorology